createdAt,value
2019-04-26T00:00:49.477Z,18.90
2019-04-26T00:03:54.506Z,18.80
2019-04-26T00:06:59.918Z,18.70
2019-04-26T00:10:10.485Z,18.70
2019-04-26T00:17:12.259Z,18.70
2019-04-26T00:20:19.018Z,18.50
2019-04-26T00:23:24.427Z,18.50
2019-04-26T00:26:30.009Z,18.50
2019-04-26T00:29:34.695Z,18.40
2019-04-26T00:32:39.496Z,18.30
2019-04-26T00:35:47.923Z,18.30
2019-04-26T00:38:50.659Z,18.20
2019-04-26T00:41:55.744Z,18.30
2019-04-26T00:45:01.062Z,18.20
2019-04-26T00:48:06.527Z,18.20
2019-04-26T00:51:12.792Z,18.20
2019-04-26T00:54:20.422Z,18.20
2019-04-26T00:57:25.929Z,18.20
2019-04-26T01:00:30.877Z,18.20
2019-04-26T01:03:35.910Z,18.10
2019-04-26T01:06:42.852Z,18.10
2019-04-26T01:09:47.842Z,18.10
2019-04-26T01:12:52.905Z,18.10
2019-04-26T01:15:57.977Z,18.10
2019-04-26T01:19:02.987Z,18.00
2019-04-26T01:22:11.538Z,18.10
2019-04-26T01:25:56.386Z,18.00
2019-04-26T01:29:05.654Z,18.00
2019-04-26T01:32:12.893Z,17.90
2019-04-26T01:38:41.106Z,17.80
2019-04-26T01:41:52.271Z,17.80
2019-04-26T01:45:14.763Z,17.70
2019-04-26T01:48:44.329Z,17.60
2019-04-26T01:51:55.824Z,17.60
2019-04-26T01:55:01.040Z,17.50
2019-04-26T01:58:07.502Z,17.50
2019-04-26T02:01:23.651Z,17.50
2019-04-26T02:04:31.988Z,17.50
2019-04-26T02:07:41.004Z,17.40
2019-04-26T02:10:46.096Z,17.40
2019-04-26T02:13:51.137Z,17.30
2019-04-26T02:16:56.426Z,17.30
2019-04-26T02:20:01.514Z,17.20
2019-04-26T02:23:13.488Z,17.20
2019-04-26T02:26:35.592Z,17.10
2019-04-26T02:29:40.538Z,17.00
2019-04-26T02:32:45.827Z,17.00
2019-04-26T02:35:50.959Z,17.00
2019-04-26T02:38:58.649Z,17.10
2019-04-26T02:42:06.788Z,17.10
2019-04-26T02:45:53.053Z,17.10
2019-04-26T02:49:19.656Z,17.10
2019-04-26T02:52:35.178Z,17.10
2019-04-26T02:56:18.949Z,17.10
2019-04-26T02:59:49.301Z,17.00
2019-04-26T03:03:01.435Z,17.00
2019-04-26T03:06:06.478Z,17.10
2019-04-26T03:09:33.256Z,17.00
2019-04-26T03:12:43.019Z,17.10
2019-04-26T03:16:22.159Z,17.10
2019-04-26T03:19:44.126Z,17.00
2019-04-26T03:23:23.913Z,16.90
2019-04-26T03:27:14.292Z,16.90
2019-04-26T03:30:49.100Z,16.90
2019-04-26T03:34:22.522Z,16.80
2019-04-26T03:38:14.958Z,16.80
2019-04-26T03:41:35.127Z,16.70
2019-04-26T03:44:54.986Z,16.80
2019-04-26T03:48:10.432Z,16.90
2019-04-26T03:51:21.903Z,16.90
2019-04-26T03:54:29.494Z,16.90
2019-04-26T03:57:50.502Z,16.90
2019-04-26T04:01:00.427Z,17.00
2019-04-26T04:04:24.273Z,17.10
2019-04-26T04:07:39.050Z,17.10
2019-04-26T04:10:51.316Z,17.10
2019-04-26T04:14:07.574Z,17.10
2019-04-26T04:17:45.048Z,17.10
2019-04-26T04:21:27.985Z,17.10
2019-04-26T04:24:39.092Z,17.10
2019-04-26T04:28:07.588Z,17.10
2019-04-26T04:31:19.915Z,17.20
2019-04-26T04:34:40.084Z,17.20
2019-04-26T04:38:09.188Z,17.20
2019-04-26T04:41:34.223Z,17.20
2019-04-26T04:45:22.329Z,17.20
2019-04-26T04:48:50.577Z,17.10
2019-04-26T04:52:29.165Z,17.10
2019-04-26T04:55:53.039Z,17.10
2019-04-26T04:59:01.127Z,17.00
2019-04-26T05:02:36.529Z,17.00
2019-04-26T05:06:07.416Z,17.10
2019-04-26T05:09:12.869Z,17.20
2019-04-26T05:12:30.295Z,17.20
2019-04-26T05:16:23.140Z,17.20
2019-04-26T05:19:57.068Z,17.20
2019-04-26T05:23:46.204Z,17.20
2019-04-26T05:27:41.014Z,17.20
2019-04-26T05:31:08.367Z,17.10
2019-04-26T05:34:35.158Z,17.20
2019-04-26T05:37:55.801Z,17.10
2019-04-26T05:41:21.169Z,17.10
2019-04-26T05:44:43.484Z,17.10
2019-04-26T05:48:09.416Z,17.10
2019-04-26T05:51:47.295Z,17.10
2019-04-26T05:55:45.073Z,17.10
2019-04-26T05:59:03.147Z,17.00
2019-04-26T06:02:59.068Z,17.00
2019-04-26T06:06:36.443Z,17.10
2019-04-26T06:10:11.604Z,17.10
2019-04-26T06:14:02.828Z,17.20
2019-04-26T06:17:49.305Z,17.20
2019-04-26T06:21:13.390Z,17.40
2019-04-26T06:24:46.162Z,17.50
2019-04-26T06:28:24.017Z,17.50
2019-04-26T06:31:38.245Z,17.50
2019-04-26T06:34:55.081Z,17.50
2019-04-26T06:38:28.435Z,17.50
2019-04-26T06:42:07.502Z,17.60
2019-04-26T06:46:05.043Z,17.60
2019-04-26T06:49:52.965Z,17.80
2019-04-26T06:53:21.896Z,17.80
2019-04-26T06:57:08.817Z,17.90
2019-04-26T07:00:24.936Z,18.00
2019-04-26T07:03:52.199Z,17.90
2019-04-26T07:07:33.796Z,18.00
2019-04-26T07:10:55.234Z,18.10
2019-04-26T07:14:29.778Z,18.10
2019-04-26T07:18:21.728Z,18.20
2019-04-26T07:22:35.270Z,18.30
2019-04-26T07:26:07.989Z,18.40
2019-04-26T07:29:32.285Z,18.50
2019-04-26T07:33:08.355Z,18.70
2019-04-26T07:36:47.198Z,18.80
2019-04-26T07:40:30.814Z,18.90
2019-04-26T07:44:00.988Z,18.90
2019-04-26T07:47:34.406Z,19.00
2019-04-26T07:51:13.659Z,19.10
2019-04-26T07:54:48.131Z,19.20
2019-04-26T07:58:38.580Z,19.30
2019-04-26T08:02:22.787Z,19.40
2019-04-26T08:05:40.366Z,19.50
2019-04-26T08:08:52.949Z,19.80
2019-04-26T08:12:05.942Z,20.00
2019-04-26T08:15:25.805Z,20.30
2019-04-26T08:18:48.365Z,20.50
2019-04-26T08:22:11.153Z,20.80
2019-04-26T08:25:04.468Z,21.00
2019-04-26T08:28:12.065Z,21.10
2019-04-26T08:31:24.410Z,21.30
2019-04-26T08:34:33.811Z,21.40
2019-04-26T08:37:52.129Z,21.50
2019-04-26T08:41:00.523Z,21.70
2019-04-26T08:44:22.075Z,21.80
2019-04-26T08:47:42.342Z,21.80
2019-04-26T08:50:49.892Z,21.80
2019-04-26T08:53:56.621Z,21.90
2019-04-26T08:57:08.497Z,21.90
2019-04-26T09:00:35.653Z,22.00
2019-04-26T09:03:46.858Z,22.10
2019-04-26T09:07:04.230Z,22.30
2019-04-26T09:10:11.995Z,22.50
2019-04-26T09:13:18.450Z,22.70
2019-04-26T09:16:23.567Z,23.00
2019-04-26T09:19:30.421Z,23.30
2019-04-26T09:22:56.654Z,23.80
2019-04-26T09:26:03.948Z,24.20
2019-04-26T09:29:30.412Z,25.00
2019-04-26T09:32:46.197Z,25.70
2019-04-26T09:35:51.088Z,26.40
2019-04-26T09:38:55.889Z,27.10
2019-04-26T09:42:09.617Z,27.60
2019-04-26T09:45:32.937Z,28.00
2019-04-26T09:49:06.890Z,28.20
2019-04-26T09:52:16.061Z,27.90
2019-04-26T09:55:20.933Z,27.80
2019-04-26T09:58:26.896Z,27.60
2019-04-26T10:01:33.932Z,27.30
2019-04-26T10:04:39.308Z,27.00
2019-04-26T10:07:44.331Z,26.40
2019-04-26T10:10:51.597Z,26.10
2019-04-26T10:14:05.338Z,25.90
2019-04-26T10:17:15.566Z,25.70
2019-04-26T10:20:38.460Z,25.30
2019-04-26T10:23:43.424Z,25.00
2019-04-26T10:26:48.562Z,24.80
2019-04-26T10:29:56.598Z,24.80
2019-04-26T10:33:02.291Z,24.80
2019-04-26T10:36:07.326Z,24.90
2019-04-26T10:39:12.783Z,24.80
2019-04-26T10:42:18.270Z,24.70
2019-04-26T10:45:23.929Z,24.70
2019-04-26T10:48:29.177Z,24.90
2019-04-26T10:51:41.883Z,25.00
2019-04-26T10:54:49.233Z,24.90
2019-04-26T10:57:56.634Z,24.90
2019-04-26T11:01:02.914Z,24.90
2019-04-26T11:04:07.881Z,25.10
2019-04-26T11:07:13.301Z,25.10
2019-04-26T11:10:18.276Z,25.20
2019-04-26T11:13:23.207Z,25.20
2019-04-26T11:16:28.237Z,25.30
2019-04-26T11:19:35.549Z,25.10
2019-04-26T11:22:39.972Z,24.80
2019-04-26T11:25:44.977Z,24.90
2019-04-26T11:28:51.300Z,25.00
2019-04-26T11:31:58.470Z,25.00
2019-04-26T11:35:03.068Z,25.10
2019-04-26T11:38:08.189Z,24.80
2019-04-26T11:41:13.204Z,24.50
2019-04-26T11:44:18.095Z,24.50
2019-04-26T11:47:23.147Z,24.40
2019-04-26T11:50:28.051Z,24.80
2019-04-26T11:53:33.743Z,25.10
2019-04-26T11:56:38.926Z,25.50
2019-04-26T11:59:43.924Z,25.70
2019-04-26T12:02:50.786Z,25.90
2019-04-26T12:06:17.509Z,26.10
2019-04-26T12:09:29.939Z,26.00
2019-04-26T12:12:35.093Z,25.80
2019-04-26T12:15:43.668Z,26.10
2019-04-26T12:18:46.728Z,26.60
2019-04-26T12:21:51.918Z,26.70
2019-04-26T12:24:56.936Z,26.70
2019-04-26T12:28:05.752Z,26.70
2019-04-26T12:31:08.575Z,26.50
2019-04-26T12:34:14.113Z,26.40
2019-04-26T12:37:21.217Z,26.40
2019-04-26T12:40:26.481Z,26.70
2019-04-26T12:43:31.586Z,27.10
2019-04-26T12:46:45.510Z,27.30
2019-04-26T12:49:54.419Z,27.70
2019-04-26T12:52:57.699Z,28.00
2019-04-26T12:56:02.627Z,28.00
2019-04-26T12:59:10.238Z,27.70
2019-04-26T13:02:34.088Z,27.50
2019-04-26T13:05:39.245Z,27.50
2019-04-26T13:08:47.255Z,27.40
2019-04-26T13:12:12.648Z,27.50
2019-04-26T13:16:01.165Z,27.20
2019-04-26T13:19:05.998Z,27.10
2019-04-26T13:22:12.527Z,27.30
2019-04-26T13:25:26.295Z,27.20
2019-04-26T13:28:24.517Z,26.90
2019-04-26T13:31:31.566Z,26.80
2019-04-26T13:34:37.263Z,26.80
2019-04-26T13:37:44.741Z,26.20
2019-04-26T13:40:49.859Z,25.90
2019-04-26T13:43:57.202Z,25.60
2019-04-26T13:47:12.064Z,25.20
2019-04-26T13:50:26.758Z,25.00
2019-04-26T13:53:31.441Z,24.90
2019-04-26T13:56:37.596Z,24.60
2019-04-26T13:59:42.853Z,24.60
2019-04-26T14:02:47.930Z,24.40
2019-04-26T14:05:53.010Z,24.40
2019-04-26T14:09:02.789Z,24.40
2019-04-26T14:12:17.812Z,24.30
2019-04-26T14:15:11.953Z,24.20
2019-04-26T14:18:17.194Z,24.10
2019-04-26T14:21:22.101Z,24.00
2019-04-26T14:24:41.391Z,23.90
2019-04-26T14:27:53.680Z,24.00
2019-04-26T14:30:58.734Z,24.10
2019-04-26T14:34:05.524Z,24.20
2019-04-26T14:37:15.613Z,24.20
2019-04-26T14:40:18.168Z,24.40
2019-04-26T14:43:23.583Z,24.40
2019-04-26T14:46:28.647Z,24.60
2019-04-26T14:49:39.555Z,24.90
2019-04-26T14:52:40.367Z,25.00
2019-04-26T14:55:45.300Z,25.00
2019-04-26T14:58:52.182Z,24.90
2019-04-26T15:02:13.347Z,24.80
2019-04-26T15:05:22.618Z,24.60
2019-04-26T15:08:27.716Z,24.30
2019-04-26T15:11:36.104Z,24.60
2019-04-26T15:14:39.760Z,24.80
2019-04-26T15:17:44.817Z,24.80
2019-04-26T15:20:53.194Z,24.90
2019-04-26T15:23:59.370Z,25.00
2019-04-26T15:27:03.373Z,25.10
2019-04-26T15:30:09.110Z,25.10
2019-04-26T15:33:14.481Z,24.90
2019-04-26T15:36:19.578Z,24.50
2019-04-26T15:39:42.373Z,24.30
2019-04-26T15:43:01.277Z,24.20
2019-04-26T15:46:18.943Z,24.20
2019-04-26T15:49:37.170Z,23.80
2019-04-26T15:52:43.753Z,23.50
2019-04-26T15:55:48.983Z,23.50
2019-04-26T15:58:53.934Z,23.40
2019-04-26T16:01:58.882Z,23.30
2019-04-26T16:05:03.921Z,23.30
2019-04-26T16:08:09.016Z,23.10
2019-04-26T16:11:13.994Z,23.00
2019-04-26T16:14:19.091Z,22.80
2019-04-26T16:17:24.075Z,22.80
2019-04-26T16:20:31.633Z,22.70
2019-04-26T16:23:41.213Z,22.60
2019-04-26T16:26:50.608Z,22.50
2019-04-26T16:30:14.239Z,22.40
2019-04-26T16:33:23.964Z,22.20
2019-04-26T16:36:29.065Z,22.10
2019-04-26T16:39:38.798Z,22.00
2019-04-26T16:42:41.046Z,21.90
2019-04-26T16:45:46.212Z,21.80
2019-04-26T16:48:56.670Z,21.80
2019-04-26T16:52:01.833Z,21.80
2019-04-26T16:55:04.660Z,21.70
2019-04-26T16:58:09.717Z,21.60
2019-04-26T17:01:15.317Z,21.50
2019-04-26T17:04:28.647Z,21.50
2019-04-26T17:07:27.533Z,21.60
2019-04-26T17:10:32.976Z,21.50
2019-04-26T17:13:48.248Z,21.40
2019-04-26T17:16:44.950Z,21.30
2019-04-26T17:19:50.079Z,21.20
2019-04-26T17:23:03.262Z,21.10
2019-04-26T17:26:36.743Z,21.00
2019-04-26T17:29:42.390Z,21.00
2019-04-26T17:32:51.160Z,21.00
2019-04-26T17:35:54.284Z,20.90
2019-04-26T17:39:00.597Z,20.90
2019-04-26T17:42:06.044Z,20.90
2019-04-26T17:45:11.199Z,20.80
2019-04-26T17:48:16.065Z,20.70
2019-04-26T17:51:23.090Z,20.70
2019-04-26T17:54:43.723Z,20.70
2019-04-26T17:57:36.905Z,20.50
2019-04-26T18:00:45.896Z,20.40
2019-04-26T18:03:52.116Z,20.40
2019-04-26T18:07:02.068Z,20.30
2019-04-26T18:10:02.409Z,20.30
2019-04-26T18:13:11.205Z,20.20
2019-04-26T18:16:17.801Z,20.20
2019-04-26T18:19:31.332Z,20.10
2019-04-26T18:23:05.297Z,20.10
2019-04-26T18:26:08.818Z,20.00
2019-04-26T18:29:13.752Z,20.00
2019-04-26T18:32:18.681Z,19.90
2019-04-26T18:35:23.659Z,19.80
2019-04-26T18:38:28.893Z,19.80
2019-04-26T18:41:34.498Z,19.70
2019-04-26T18:44:47.521Z,19.70
2019-04-26T18:47:46.280Z,19.60
2019-04-26T18:50:51.309Z,19.50
2019-04-26T18:54:18.202Z,19.50
2019-04-26T18:57:23.860Z,19.50
2019-04-26T19:00:47.053Z,19.50
2019-04-26T19:03:53.951Z,19.40
2019-04-26T19:06:58.855Z,19.30
2019-04-26T19:10:05.509Z,19.30
2019-04-26T19:13:44.581Z,19.20
2019-04-26T19:17:08.605Z,19.20
2019-04-26T19:20:39.139Z,19.20
2019-04-26T19:23:44.286Z,19.20
2019-04-26T19:26:50.336Z,19.30
2019-04-26T19:29:56.064Z,19.30
2019-04-26T19:33:02.065Z,19.30
2019-04-26T19:36:07.372Z,19.40
2019-04-26T19:39:13.076Z,19.40
2019-04-26T19:42:19.253Z,19.30
2019-04-26T19:45:39.565Z,19.20
2019-04-26T19:49:14.118Z,19.30
2019-04-26T19:52:55.177Z,19.20
2019-04-26T19:56:28.402Z,19.10
2019-04-26T19:59:35.104Z,19.00
2019-04-26T20:02:41.859Z,19.00
2019-04-26T20:05:46.998Z,19.00
2019-04-26T20:08:52.131Z,18.90
2019-04-26T20:11:58.218Z,18.90
2019-04-26T20:15:03.940Z,18.90
2019-04-26T20:18:09.049Z,19.00
2019-04-26T20:21:15.483Z,18.90
2019-04-26T20:24:20.581Z,18.90
2019-04-26T20:27:27.877Z,19.00
2019-04-26T20:30:57.977Z,18.90
2019-04-26T20:34:01.525Z,18.90
2019-04-26T20:37:07.657Z,18.90
2019-04-26T20:40:20.297Z,18.90
2019-04-26T20:43:25.961Z,18.90
2019-04-26T20:46:29.747Z,18.80
2019-04-26T20:49:34.259Z,18.80
2019-04-26T20:52:39.363Z,18.60
2019-04-26T20:55:47.024Z,18.60
2019-04-26T20:58:52.292Z,18.60
2019-04-26T21:02:05.374Z,18.50
2019-04-26T21:05:06.140Z,18.40
2019-04-26T21:08:12.465Z,18.40
2019-04-26T21:11:17.687Z,18.40
2019-04-26T21:14:23.819Z,18.30
2019-04-26T21:17:28.992Z,18.30
2019-04-26T21:20:36.378Z,18.30
2019-04-26T21:23:42.289Z,18.30
2019-04-26T21:27:05.284Z,18.30
2019-04-26T21:30:34.743Z,18.20
2019-04-26T21:33:47.020Z,18.10
2019-04-26T21:37:11.379Z,18.00
2019-04-26T21:40:29.439Z,18.00
2019-04-26T21:43:38.183Z,18.00
2019-04-26T21:46:41.405Z,18.00
2019-04-26T21:49:46.376Z,18.00
2019-04-26T21:52:51.439Z,18.10
2019-04-26T21:55:56.422Z,18.10
2019-04-26T21:59:01.366Z,18.10
2019-04-26T22:02:06.768Z,18.10
2019-04-26T22:05:14.868Z,18.10
2019-04-26T22:08:24.671Z,18.10
2019-04-26T22:11:27.922Z,18.10
2019-04-26T22:14:35.034Z,18.00
2019-04-26T22:17:41.590Z,17.80
2019-04-26T22:20:56.228Z,17.70
2019-04-26T22:24:07.749Z,17.60
2019-04-26T22:27:13.234Z,17.50
2019-04-26T22:30:28.499Z,17.40
2019-04-26T22:33:30.877Z,17.40
2019-04-26T22:36:37.130Z,17.40
2019-04-26T22:39:44.188Z,17.30
2019-04-26T22:42:50.872Z,17.30
2019-04-26T22:46:29.870Z,17.30
2019-04-26T22:49:34.951Z,17.10
2019-04-26T22:52:40.460Z,17.10
2019-04-26T22:55:45.588Z,17.00
2019-04-26T22:58:50.776Z,16.90
2019-04-26T23:01:55.782Z,17.00
2019-04-26T23:05:02.026Z,16.80
2019-04-26T23:08:08.372Z,16.80
2019-04-26T23:11:13.540Z,16.80
2019-04-26T23:14:35.092Z,16.70
2019-04-26T23:18:08.325Z,16.70
2019-04-26T23:21:25.051Z,16.80
2019-04-26T23:24:30.254Z,16.70
2019-04-26T23:27:35.257Z,16.60
2019-04-26T23:30:40.120Z,16.60
2019-04-26T23:33:45.131Z,16.60
2019-04-26T23:36:50.310Z,16.50
2019-04-26T23:39:55.311Z,16.40
2019-04-26T23:43:00.282Z,16.30
2019-04-26T23:46:05.287Z,16.30
2019-04-26T23:49:10.325Z,16.30
2019-04-26T23:52:18.595Z,16.30
2019-04-26T23:55:23.540Z,16.30
2019-04-26T23:58:28.695Z,16.20
